createdAt,value
2019-05-19T00:01:44.643Z,13.94
2019-05-19T00:04:15.911Z,13.99
2019-05-19T00:06:47.181Z,13.96
2019-05-19T00:09:18.430Z,14.06
2019-05-19T00:11:49.727Z,14.03
2019-05-19T00:14:21.021Z,13.98
2019-05-19T00:16:52.258Z,13.92
2019-05-19T00:19:26.906Z,13.89
2019-05-19T00:21:56.426Z,13.87
2019-05-19T00:24:27.607Z,13.87
2019-05-19T00:26:58.887Z,13.95
2019-05-19T00:29:30.134Z,13.88
2019-05-19T00:32:01.346Z,13.85
2019-05-19T00:34:32.604Z,13.83
2019-05-19T00:37:04.029Z,13.73
2019-05-19T00:39:35.328Z,13.70
2019-05-19T00:42:06.722Z,13.64
2019-05-19T00:44:37.933Z,13.73
2019-05-19T00:47:09.183Z,13.65
2019-05-19T00:49:41.733Z,13.60
2019-05-19T00:52:13.132Z,13.75
2019-05-19T00:54:44.368Z,13.80
2019-05-19T00:57:16.122Z,13.82
2019-05-19T00:59:48.312Z,13.90
2019-05-19T01:02:19.618Z,13.88
2019-05-19T01:04:50.873Z,13.79
2019-05-19T01:07:22.147Z,13.90
2019-05-19T01:09:53.490Z,13.94
2019-05-19T01:12:24.747Z,13.95
2019-05-19T01:14:55.995Z,14.04
2019-05-19T01:17:27.280Z,14.02
2019-05-19T01:19:58.487Z,14.09
2019-05-19T01:22:30.224Z,14.11
2019-05-19T01:25:01.408Z,14.02
2019-05-19T01:27:32.663Z,13.94
2019-05-19T01:30:03.994Z,13.84
2019-05-19T01:32:35.273Z,13.78
2019-05-19T01:35:06.549Z,13.74
2019-05-19T01:37:37.762Z,13.67
2019-05-19T01:40:10.647Z,13.70
2019-05-19T01:42:41.919Z,13.71
2019-05-19T01:45:13.983Z,13.78
2019-05-19T01:47:45.249Z,13.71
2019-05-19T01:50:18.418Z,13.67
2019-05-19T01:52:50.167Z,13.66
2019-05-19T01:55:21.433Z,13.56
2019-05-19T01:57:52.692Z,13.58
2019-05-19T02:00:24.217Z,13.59
2019-05-19T02:02:55.444Z,13.50
2019-05-19T02:05:26.707Z,13.48
2019-05-19T02:07:57.941Z,13.40
2019-05-19T02:10:25.267Z,13.43
2019-05-19T02:12:56.481Z,13.51
2019-05-19T02:15:27.787Z,13.47
2019-05-19T02:17:58.957Z,13.45
2019-05-19T02:20:33.367Z,13.56
2019-05-19T02:23:03.127Z,13.64
2019-05-19T02:25:34.423Z,13.40
2019-05-19T02:28:05.672Z,13.43
2019-05-19T02:30:37.046Z,13.34
2019-05-19T02:33:08.173Z,13.23
2019-05-19T02:35:39.377Z,13.22
2019-05-19T02:38:10.622Z,13.10
2019-05-19T02:40:43.779Z,13.07
2019-05-19T02:43:16.326Z,12.98
2019-05-19T02:45:50.753Z,12.86
2019-05-19T02:48:24.008Z,12.74
2019-05-19T02:50:58.637Z,12.65
2019-05-19T02:53:31.565Z,12.65
2019-05-19T02:56:04.889Z,12.56
2019-05-19T02:58:37.129Z,12.51
2019-05-19T03:01:08.398Z,12.39
2019-05-19T03:03:39.654Z,12.38
2019-05-19T03:06:10.816Z,12.28
2019-05-19T03:08:42.083Z,12.22
2019-05-19T03:11:13.315Z,12.20
2019-05-19T03:13:44.599Z,12.08
2019-05-19T03:16:15.843Z,12.06
2019-05-19T03:18:47.061Z,12.04
2019-05-19T03:21:18.324Z,12.25
2019-05-19T03:23:49.524Z,12.59
2019-05-19T03:26:20.771Z,12.89
2019-05-19T03:28:52.029Z,12.99
2019-05-19T03:31:33.289Z,13.04
2019-05-19T03:34:04.642Z,13.04
2019-05-19T03:36:35.844Z,13.18
2019-05-19T03:39:08.578Z,13.21
2019-05-19T03:41:39.722Z,13.21
2019-05-19T03:44:10.963Z,13.27
2019-05-19T03:46:42.192Z,13.24
2019-05-19T03:49:13.372Z,13.16
2019-05-19T03:51:44.759Z,13.23
2019-05-19T03:54:16.031Z,13.04
2019-05-19T03:56:47.271Z,13.01
2019-05-19T03:59:18.528Z,13.07
2019-05-19T04:01:49.763Z,13.02
2019-05-19T04:04:20.944Z,13.10
2019-05-19T04:06:52.159Z,13.07
2019-05-19T04:09:23.452Z,13.03
2019-05-19T04:11:54.711Z,13.14
2019-05-19T04:14:26.006Z,13.14
2019-05-19T04:16:57.314Z,13.19
2019-05-19T04:19:28.530Z,13.25
2019-05-19T04:21:59.786Z,13.30
2019-05-19T04:24:31.034Z,13.37
2019-05-19T04:27:02.190Z,13.38
2019-05-19T04:29:33.382Z,13.34
2019-05-19T04:32:04.424Z,13.32
2019-05-19T04:34:35.766Z,13.31
2019-05-19T04:37:06.978Z,13.31
2019-05-19T04:39:38.170Z,13.35
2019-05-19T04:42:09.456Z,13.43
2019-05-19T04:44:40.605Z,13.59
2019-05-19T04:47:11.897Z,13.66
2019-05-19T04:49:43.158Z,13.77
2019-05-19T04:52:14.442Z,13.95
2019-05-19T04:54:45.697Z,14.15
2019-05-19T04:57:16.958Z,14.47
2019-05-19T04:59:48.125Z,14.75
2019-05-19T05:02:19.384Z,14.91
2019-05-19T05:04:50.707Z,14.92
2019-05-19T05:07:22.036Z,14.90
2019-05-19T05:09:53.276Z,14.90
2019-05-19T05:12:24.535Z,14.87
2019-05-19T05:14:55.801Z,14.85
2019-05-19T05:17:27.054Z,14.92
2019-05-19T05:19:58.296Z,15.00
2019-05-19T05:22:29.571Z,15.30
2019-05-19T05:25:00.783Z,15.44
2019-05-19T05:27:31.980Z,15.57
2019-05-19T05:30:03.259Z,15.64
2019-05-19T05:32:34.498Z,15.68
2019-05-19T05:35:05.980Z,15.83
2019-05-19T05:37:37.230Z,15.99
2019-05-19T05:40:09.331Z,16.56
2019-05-19T05:42:40.573Z,17.33
2019-05-19T05:45:12.011Z,18.30
2019-05-19T05:47:43.249Z,18.76
2019-05-19T05:50:14.678Z,19.38
2019-05-19T05:52:45.914Z,19.96
2019-05-19T05:55:22.332Z,20.72
2019-05-19T05:57:53.625Z,21.57
2019-05-19T06:00:25.038Z,21.98
2019-05-19T06:02:56.371Z,22.42
2019-05-19T06:05:28.899Z,22.56
2019-05-19T06:08:02.085Z,22.30
2019-05-19T06:10:36.072Z,22.11
2019-05-19T06:13:07.313Z,22.02
2019-05-19T06:15:38.670Z,21.93
2019-05-19T06:18:09.955Z,21.80
2019-05-19T06:20:41.175Z,21.44
2019-05-19T06:23:12.439Z,21.36
2019-05-19T06:25:43.687Z,21.09
2019-05-19T06:28:14.938Z,20.59
2019-05-19T06:30:46.491Z,20.42
2019-05-19T06:33:17.832Z,20.62
2019-05-19T06:35:49.088Z,20.51
2019-05-19T06:38:20.321Z,20.17
2019-05-19T06:40:51.562Z,19.83
2019-05-19T06:43:22.840Z,19.77
2019-05-19T06:45:54.131Z,19.72
2019-05-19T06:48:25.282Z,19.75
2019-05-19T06:50:56.573Z,19.77
2019-05-19T06:53:27.763Z,20.04
2019-05-19T06:55:59.031Z,20.16
2019-05-19T06:58:30.274Z,20.24
2019-05-19T07:01:01.522Z,20.18
2019-05-19T07:03:32.784Z,19.89
2019-05-19T07:06:04.177Z,19.97
2019-05-19T07:08:35.376Z,19.88
2019-05-19T07:11:06.632Z,19.73
2019-05-19T07:13:37.812Z,19.61
2019-05-19T07:16:09.081Z,19.61
2019-05-19T07:18:40.367Z,19.45
2019-05-19T07:21:11.740Z,19.39
2019-05-19T07:23:42.997Z,19.54
2019-05-19T07:26:14.258Z,19.75
2019-05-19T07:28:45.480Z,19.88
2019-05-19T07:31:16.754Z,20.14
2019-05-19T07:33:48.024Z,20.52
2019-05-19T07:36:19.267Z,20.91
2019-05-19T07:38:50.453Z,21.32
2019-05-19T07:41:21.746Z,21.73
2019-05-19T07:43:52.959Z,22.21
2019-05-19T07:46:24.195Z,22.57
2019-05-19T07:48:55.401Z,23.08
2019-05-19T07:51:27.967Z,23.32
2019-05-19T07:53:59.253Z,23.75
2019-05-19T07:56:30.548Z,23.87
2019-05-19T07:59:01.828Z,23.87
2019-05-19T08:01:33.228Z,23.65
2019-05-19T08:04:04.491Z,23.34
2019-05-19T08:06:38.252Z,23.34
2019-05-19T08:09:09.521Z,23.39
2019-05-19T08:11:40.771Z,23.80
2019-05-19T08:14:12.037Z,24.61
2019-05-19T08:16:43.266Z,25.11
2019-05-19T08:19:14.552Z,25.61
2019-05-19T08:21:55.984Z,26.51
2019-05-19T08:24:24.553Z,27.17
2019-05-19T08:26:55.810Z,26.66
2019-05-19T08:29:30.407Z,27.07
2019-05-19T08:32:02.859Z,26.98
2019-05-19T08:34:34.117Z,26.69
2019-05-19T08:37:05.363Z,26.35
2019-05-19T08:39:36.626Z,26.78
2019-05-19T08:42:07.840Z,26.26
2019-05-19T08:44:39.243Z,25.51
2019-05-19T08:47:10.490Z,25.26
2019-05-19T08:49:41.786Z,25.91
2019-05-19T08:52:13.038Z,26.97
2019-05-19T08:54:44.402Z,26.92
2019-05-19T08:57:15.719Z,27.59
2019-05-19T08:59:46.921Z,27.53
2019-05-19T09:02:18.153Z,27.68
2019-05-19T09:04:49.397Z,26.96
2019-05-19T09:07:20.551Z,26.88
2019-05-19T09:09:51.787Z,26.78
2019-05-19T09:12:23.014Z,26.39
2019-05-19T09:14:54.282Z,26.97
2019-05-19T09:17:25.481Z,26.37
2019-05-19T09:19:56.825Z,26.25
2019-05-19T09:22:28.059Z,26.47
2019-05-19T09:24:59.296Z,26.78
2019-05-19T09:27:30.499Z,27.27
2019-05-19T09:30:01.816Z,26.81
2019-05-19T09:32:33.096Z,27.09
2019-05-19T09:35:06.711Z,26.42
2019-05-19T09:37:37.976Z,25.99
2019-05-19T09:40:09.945Z,25.51
2019-05-19T09:42:41.184Z,25.29
2019-05-19T09:45:12.903Z,25.54
2019-05-19T09:47:46.458Z,25.01
2019-05-19T09:50:25.035Z,25.01
2019-05-19T09:52:57.578Z,24.84
2019-05-19T09:55:31.345Z,24.86
2019-05-19T09:58:02.590Z,24.33
2019-05-19T10:00:33.830Z,24.14
2019-05-19T10:03:05.161Z,24.56
2019-05-19T10:05:36.311Z,24.99
2019-05-19T10:08:07.573Z,25.29
2019-05-19T10:11:28.285Z,25.05
2019-05-19T10:13:59.392Z,24.39
2019-05-19T10:16:30.675Z,25.28
2019-05-19T10:19:01.874Z,25.14
2019-05-19T10:21:33.121Z,24.86
2019-05-19T10:24:04.375Z,24.55
2019-05-19T10:26:35.613Z,24.66
2019-05-19T10:29:06.918Z,24.86
2019-05-19T10:31:38.299Z,25.02
2019-05-19T10:34:09.537Z,24.80
2019-05-19T10:36:40.698Z,24.86
2019-05-19T10:39:11.935Z,24.61
2019-05-19T10:41:43.159Z,24.58
2019-05-19T10:44:14.461Z,24.25
2019-05-19T10:46:45.702Z,24.41
2019-05-19T10:49:17.002Z,24.85
2019-05-19T10:51:48.209Z,25.00
2019-05-19T10:54:19.526Z,25.43
2019-05-19T10:56:50.754Z,24.94
2019-05-19T10:59:21.946Z,25.20
2019-05-19T11:01:53.191Z,25.09
2019-05-19T11:04:24.454Z,24.99
2019-05-19T11:06:55.709Z,24.88
2019-05-19T11:09:26.887Z,24.44
2019-05-19T11:12:01.037Z,25.00
2019-05-19T11:14:32.287Z,25.43
2019-05-19T11:17:03.625Z,25.34
2019-05-19T11:19:34.865Z,25.66
2019-05-19T11:22:06.097Z,25.66
2019-05-19T11:24:37.426Z,25.95
2019-05-19T11:27:10.127Z,25.71
2019-05-19T11:29:41.425Z,25.25
2019-05-19T11:32:12.590Z,24.94
2019-05-19T11:34:44.321Z,24.73
2019-05-19T11:37:15.686Z,24.18
2019-05-19T11:39:49.998Z,24.52
2019-05-19T11:42:23.950Z,24.85
2019-05-19T11:44:56.816Z,24.50
2019-05-19T11:47:30.987Z,24.41
2019-05-19T11:50:02.355Z,24.33
2019-05-19T11:52:33.544Z,24.24
2019-05-19T11:55:04.734Z,24.19
2019-05-19T11:57:36.020Z,24.37
2019-05-19T12:00:08.158Z,24.58
2019-05-19T12:02:39.513Z,24.76
2019-05-19T12:05:10.980Z,24.96
2019-05-19T12:07:43.493Z,25.40
2019-05-19T12:10:15.315Z,25.49
2019-05-19T12:12:46.771Z,25.50
2019-05-19T12:15:18.233Z,25.50
2019-05-19T12:17:49.449Z,25.44
2019-05-19T12:20:20.836Z,25.72
2019-05-19T12:22:52.085Z,25.95
2019-05-19T12:25:23.328Z,25.45
2019-05-19T12:27:54.577Z,25.14
2019-05-19T12:30:25.914Z,25.28
2019-05-19T12:32:59.282Z,25.13
2019-05-19T12:35:30.274Z,25.22
2019-05-19T12:38:01.569Z,24.79
2019-05-19T12:40:32.997Z,24.90
2019-05-19T12:43:04.274Z,24.62
2019-05-19T12:45:35.569Z,24.61
2019-05-19T12:48:06.937Z,24.90
2019-05-19T12:50:38.224Z,24.92
2019-05-19T12:53:09.506Z,24.93
2019-05-19T12:55:40.792Z,25.13
2019-05-19T12:58:12.045Z,24.54
2019-05-19T13:00:43.517Z,24.49
2019-05-19T13:03:14.659Z,24.39
2019-05-19T13:05:45.936Z,24.46
2019-05-19T13:08:17.156Z,24.78
2019-05-19T13:10:48.438Z,25.64
2019-05-19T13:13:19.650Z,26.12
2019-05-19T13:15:50.948Z,26.70
2019-05-19T13:18:29.516Z,26.93
2019-05-19T13:21:01.279Z,26.65
2019-05-19T13:23:32.595Z,26.46
2019-05-19T13:26:04.111Z,26.56
2019-05-19T13:28:35.435Z,26.24
2019-05-19T13:31:09.149Z,25.99
2019-05-19T13:33:44.604Z,25.86
2019-05-19T13:36:15.889Z,25.64
2019-05-19T13:41:16.738Z,25.63
2019-05-19T13:43:47.980Z,24.93
2019-05-19T13:46:19.228Z,24.67
2019-05-19T13:48:50.508Z,24.06
2019-05-19T13:51:21.695Z,23.26
2019-05-19T13:53:53.003Z,23.31
2019-05-19T13:56:24.229Z,23.20
2019-05-19T13:58:55.677Z,22.44
2019-05-19T14:01:28.952Z,21.83
2019-05-19T14:03:59.870Z,20.80
2019-05-19T14:06:31.186Z,20.44
2019-05-19T14:09:02.477Z,20.52
2019-05-19T14:11:36.340Z,20.49
2019-05-19T14:14:07.647Z,20.21
2019-05-19T14:16:38.916Z,20.25
2019-05-19T14:19:10.199Z,20.25
2019-05-19T14:21:41.512Z,20.10
2019-05-19T14:24:12.747Z,19.96
2019-05-19T14:26:43.918Z,20.08
2019-05-19T14:29:15.178Z,20.19
2019-05-19T14:31:46.392Z,20.30
2019-05-19T14:34:22.070Z,20.09
2019-05-19T14:36:53.275Z,20.12
2019-05-19T14:39:24.622Z,20.20
2019-05-19T14:42:00.016Z,20.21
2019-05-19T14:44:31.333Z,20.26
2019-05-19T14:47:02.581Z,20.12
2019-05-19T14:49:36.156Z,20.04
2019-05-19T14:52:07.550Z,20.18
2019-05-19T14:54:39.033Z,20.03
2019-05-19T14:57:10.305Z,20.21
2019-05-19T14:59:43.969Z,20.17
2019-05-19T15:04:51.255Z,20.31
2019-05-19T15:07:25.105Z,20.35
2019-05-19T15:09:58.035Z,20.10
2019-05-19T15:12:29.492Z,20.15
2019-05-19T15:15:02.635Z,20.74
2019-05-19T15:17:33.874Z,20.66
2019-05-19T15:20:07.036Z,20.85
2019-05-19T15:22:43.992Z,20.36
2019-05-19T15:25:19.947Z,20.73
2019-05-19T15:28:04.555Z,20.94
2019-05-19T15:30:35.163Z,21.35
2019-05-19T15:33:06.474Z,21.68
2019-05-19T15:35:37.726Z,21.99
2019-05-19T15:38:09.198Z,21.97
2019-05-19T15:40:47.932Z,21.97
2019-05-19T15:43:19.204Z,22.00
2019-05-19T15:45:50.575Z,22.37
2019-05-19T15:48:21.904Z,22.16
2019-05-19T15:50:53.195Z,21.75
2019-05-19T15:53:24.515Z,21.77
2019-05-19T15:55:55.849Z,21.64
2019-05-19T15:58:32.473Z,21.33
2019-05-19T16:01:04.950Z,21.45
2019-05-19T16:03:42.371Z,22.25
2019-05-19T16:06:13.710Z,22.76
2019-05-19T16:08:45.048Z,22.81
2019-05-19T16:11:16.451Z,23.22
2019-05-19T16:13:47.733Z,22.97
2019-05-19T16:16:20.402Z,23.71
2019-05-19T16:18:53.357Z,25.21
2019-05-19T16:21:24.866Z,26.95
2019-05-19T16:23:56.135Z,27.93
2019-05-19T16:26:46.449Z,28.39
2019-05-19T16:29:17.812Z,28.54
2019-05-19T16:31:49.297Z,28.78
2019-05-19T16:34:20.535Z,29.30
2019-05-19T16:36:51.876Z,27.46
2019-05-19T16:39:23.165Z,25.77
2019-05-19T16:41:54.443Z,25.03
2019-05-19T16:44:25.599Z,24.44
2019-05-19T16:46:57.208Z,23.99
2019-05-19T16:49:28.505Z,23.93
2019-05-19T16:52:02.943Z,23.84
2019-05-19T16:54:37.623Z,23.44
2019-05-19T16:57:10.325Z,23.14
2019-05-19T16:59:41.527Z,22.73
2019-05-19T17:02:12.820Z,22.55
2019-05-19T17:04:44.455Z,22.12
2019-05-19T17:07:16.108Z,21.77
2019-05-19T17:09:47.387Z,21.49
2019-05-19T17:12:18.769Z,21.31
2019-05-19T17:14:50.023Z,21.32
2019-05-19T17:17:21.267Z,21.17
2019-05-19T17:19:52.625Z,21.08
2019-05-19T17:22:23.885Z,21.13
2019-05-19T17:24:55.202Z,20.87
2019-05-19T17:27:27.418Z,20.77
2019-05-19T17:29:58.711Z,20.53
2019-05-19T17:32:30.160Z,20.35
2019-05-19T17:35:01.535Z,20.32
2019-05-19T17:37:32.810Z,20.34
2019-05-19T17:40:04.209Z,20.69
2019-05-19T17:42:37.301Z,21.20
2019-05-19T17:45:13.788Z,21.89
2019-05-19T17:47:45.397Z,22.92
2019-05-19T17:50:18.817Z,22.82
2019-05-19T17:52:50.126Z,22.13
2019-05-19T17:55:22.028Z,21.60
2019-05-19T17:57:53.943Z,21.22
2019-05-19T18:00:37.456Z,20.92
2019-05-19T18:03:09.196Z,20.67
2019-05-19T18:05:40.454Z,20.56
2019-05-19T18:08:12.123Z,20.25
2019-05-19T18:10:43.671Z,20.18
2019-05-19T18:13:15.025Z,20.06
2019-05-19T18:15:46.553Z,19.95
2019-05-19T18:18:17.930Z,19.86
2019-05-19T18:20:49.148Z,19.67
2019-05-19T18:23:20.608Z,19.31
2019-05-19T18:25:52.281Z,19.10
2019-05-19T18:28:23.767Z,18.96
2019-05-19T18:30:55.136Z,18.90
2019-05-19T18:33:29.137Z,18.84
2019-05-19T18:36:00.598Z,18.84
2019-05-19T18:38:39.537Z,18.84
2019-05-19T18:41:25.189Z,19.04
2019-05-19T18:44:16.383Z,19.11
2019-05-19T18:46:57.776Z,19.11
2019-05-19T18:49:42.903Z,19.03
2019-05-19T18:52:14.358Z,18.97
2019-05-19T18:54:45.715Z,18.76
2019-05-19T18:57:17.019Z,18.63
2019-05-19T18:59:52.283Z,18.46
2019-05-19T19:02:23.762Z,18.35
2019-05-19T19:04:55.163Z,18.18
2019-05-19T19:07:45.281Z,18.23
2019-05-19T19:10:16.627Z,18.17
2019-05-19T19:12:50.709Z,18.20
2019-05-19T19:15:22.131Z,18.08
2019-05-19T19:17:53.372Z,17.98
2019-05-19T19:20:28.764Z,17.97
2019-05-19T19:23:00.046Z,17.94
2019-05-19T19:25:31.545Z,17.88
2019-05-19T19:28:02.794Z,17.86
2019-05-19T19:30:34.047Z,17.89
2019-05-19T19:33:05.286Z,17.85
2019-05-19T19:35:39.119Z,17.81
2019-05-19T19:38:09.548Z,17.77
2019-05-19T19:40:40.780Z,17.76
2019-05-19T19:43:12.124Z,17.67
2019-05-19T19:45:43.579Z,17.68
2019-05-19T19:48:14.922Z,17.67
2019-05-19T19:50:48.134Z,17.67
2019-05-19T19:53:19.431Z,17.63
2019-05-19T19:55:50.621Z,17.53
2019-05-19T19:58:21.852Z,17.47
2019-05-19T20:00:53.194Z,17.34
2019-05-19T20:03:24.690Z,17.23
2019-05-19T20:05:56.047Z,17.10
2019-05-19T20:08:27.298Z,17.02
2019-05-19T20:10:58.583Z,17.03
2019-05-19T20:13:29.745Z,16.88
2019-05-19T20:16:00.990Z,16.72
2019-05-19T20:18:32.310Z,16.57
2019-05-19T20:21:11.220Z,16.44
2019-05-19T20:23:42.460Z,16.38
2019-05-19T20:26:13.735Z,16.18
2019-05-19T20:28:45.021Z,16.12
2019-05-19T20:31:16.190Z,16.04
2019-05-19T20:33:47.530Z,15.97
2019-05-19T20:36:18.760Z,15.97
2019-05-19T20:38:50.257Z,15.97
2019-05-19T20:41:21.547Z,15.79
2019-05-19T20:43:54.283Z,15.64
2019-05-19T20:46:25.633Z,15.50
2019-05-19T20:48:56.915Z,15.29
2019-05-19T20:51:28.302Z,15.18
2019-05-19T20:53:59.563Z,15.17
2019-05-19T20:56:30.713Z,15.12
2019-05-19T20:59:01.995Z,15.18
2019-05-19T21:01:33.875Z,15.06
2019-05-19T21:04:05.240Z,14.90
2019-05-19T21:06:36.834Z,14.84
2019-05-19T21:09:11.528Z,14.72
2019-05-19T21:11:42.804Z,14.57
2019-05-19T21:14:15.668Z,14.59
2019-05-19T21:16:46.894Z,14.53
2019-05-19T21:19:18.196Z,14.48
2019-05-19T21:21:49.446Z,14.41
2019-05-19T21:24:20.751Z,14.27
2019-05-19T21:26:53.473Z,14.18
2019-05-19T21:29:24.887Z,14.16
2019-05-19T21:31:56.177Z,14.19
2019-05-19T21:34:27.447Z,14.13
2019-05-19T21:36:58.665Z,14.15
2019-05-19T21:39:31.359Z,14.39
2019-05-19T21:42:02.737Z,14.47
2019-05-19T21:44:34.006Z,14.46
2019-05-19T21:47:05.250Z,14.30
2019-05-19T21:49:36.530Z,14.21
2019-05-19T21:52:07.834Z,14.09
2019-05-19T21:54:39.089Z,13.97
2019-05-19T21:57:13.314Z,13.92
2019-05-19T21:59:58.106Z,13.87
2019-05-19T22:02:32.409Z,13.78
2019-05-19T22:05:03.787Z,13.76
2019-05-19T22:08:00.861Z,13.75
2019-05-19T22:10:32.189Z,13.78
2019-05-19T22:13:03.380Z,13.96
2019-05-19T22:15:34.702Z,13.90
2019-05-19T22:18:06.013Z,13.80
2019-05-19T22:20:37.238Z,13.68
2019-05-19T22:23:08.467Z,13.55
2019-05-19T22:25:39.746Z,13.43
2019-05-19T22:28:10.994Z,13.38
2019-05-19T22:30:42.263Z,13.25
2019-05-19T22:33:14.224Z,13.14
2019-05-19T22:35:46.117Z,13.08
2019-05-19T22:38:17.478Z,12.97
2019-05-19T22:40:48.859Z,12.87
2019-05-19T22:43:20.076Z,12.79
2019-05-19T22:45:51.247Z,12.70
2019-05-19T22:48:22.767Z,12.61
2019-05-19T22:50:54.027Z,12.57
2019-05-19T22:53:25.330Z,12.52
2019-05-19T22:55:56.496Z,12.53
2019-05-19T22:58:27.896Z,12.40
2019-05-19T23:00:59.800Z,12.50
2019-05-19T23:03:31.233Z,12.33
2019-05-19T23:06:02.492Z,12.26
2019-05-19T23:08:33.786Z,12.20
2019-05-19T23:11:08.215Z,12.16
2019-05-19T23:13:39.486Z,12.09
2019-05-19T23:16:10.888Z,12.02
2019-05-19T23:18:42.278Z,11.94
2019-05-19T23:21:13.542Z,11.79
2019-05-19T23:23:44.757Z,11.68
2019-05-19T23:26:16.081Z,11.60
2019-05-19T23:28:47.346Z,11.57
2019-05-19T23:31:18.604Z,11.52
2019-05-19T23:33:49.861Z,11.50
2019-05-19T23:36:21.198Z,11.48
2019-05-19T23:38:52.479Z,11.54
2019-05-19T23:41:23.724Z,11.60
2019-05-19T23:43:54.965Z,11.55
2019-05-19T23:46:26.355Z,11.50
2019-05-19T23:48:57.620Z,11.47
2019-05-19T23:51:28.899Z,11.40
2019-05-19T23:54:00.150Z,11.41
2019-05-19T23:56:31.484Z,11.41
2019-05-19T23:59:02.865Z,11.43
